Time;durP1;ratioP1;P1;durP2;ratioP2;P2;SDS_P1;SDS_P2;PMS_P1;PMS_P2;Temp;Humidity;BMP_temperature;BMP_pressure;BME280_temperature;BME280_humidity;BME280_pressure;Samples;Min_cycle;Max_cycle;Signal;HPM_P1;HPM_P2
2022/01/29 00:00:11;;;;;;;13.63;2.55;;;5.60;79.70;;;;;;5014728;28;20038;-66
2022/01/29 00:02:40;;;;;;;21.08;3.00;;;5.70;79.80;;;;;;4994970;28;20108;-66
2022/01/29 00:05:06;;;;;;;15.40;2.65;;;5.70;80.10;;;;;;5016471;28;20042;-65
2022/01/29 00:07:32;;;;;;;17.27;2.85;;;5.70;80.00;;;;;;5001261;28;20057;-66
2022/01/29 00:10:03;;;;;;;12.43;2.30;;;5.70;79.90;;;;;;4993653;28;20085;-66
2022/01/29 00:12:29;;;;;;;17.10;1.98;;;5.70;80.00;;;;;;5017783;28;20537;-66
2022/01/29 00:14:55;;;;;;;19.50;2.17;;;5.80;79.70;;;;;;4995867;28;20057;-66
2022/01/29 00:17:20;;;;;;;14.18;3.10;;;5.80;80.00;;;;;;4996146;28;20060;-65
2022/01/29 00:19:46;;;;;;;12.63;1.80;;;5.80;80.00;;;;;;4993767;28;20034;-66
2022/01/29 00:22:12;;;;;;;13.98;2.30;;;5.90;80.10;;;;;;4996946;28;20046;-66
2022/01/29 00:24:37;;;;;;;14.75;2.50;;;5.80;79.80;;;;;;4999054;28;20034;-66
2022/01/29 00:27:08;;;;;;;10.82;2.50;;;5.90;79.50;;;;;;4990072;28;20022;-66
2022/01/29 00:29:37;;;;;;;14.43;2.67;;;5.90;79.80;;;;;;4993752;28;20089;-66
2022/01/29 00:32:03;;;;;;;8.27;2.05;;;5.90;79.30;;;;;;4997783;28;20030;-66
2022/01/29 00:34:29;;;;;;;9.88;2.63;;;5.90;79.40;;;;;;5001053;28;20042;-66
2022/01/29 00:36:55;;;;;;;16.67;2.65;;;5.90;79.40;;;;;;4999709;28;20049;-66
2022/01/29 00:39:20;;;;;;;11.77;2.55;;;5.90;79.50;;;;;;5001927;28;20042;-66
2022/01/29 00:41:46;;;;;;;17.88;2.45;;;5.90;79.40;;;;;;4999333;28;20036;-66
2022/01/29 00:44:12;;;;;;;9.27;2.28;;;5.90;78.80;;;;;;4997745;28;20026;-66
2022/01/29 00:46:41;;;;;;;12.05;3.55;;;5.90;79.10;;;;;;4993323;28;20532;-66
2022/01/29 00:49:10;;;;;;;15.63;2.42;;;5.80;79.00;;;;;;4994905;28;20042;-67
2022/01/29 00:51:36;;;;;;;17.17;2.22;;;5.80;79.50;;;;;;4990207;28;20555;-66
2022/01/29 00:54:02;;;;;;;15.48;2.65;;;5.80;78.80;;;;;;4995560;28;20038;-67
2022/01/29 00:56:28;;;;;;;11.52;2.38;;;5.80;79.40;;;;;;4995756;28;20029;-60
2022/01/29 00:58:53;;;;;;;18.08;2.60;;;5.70;79.30;;;;;;4995177;28;20110;-67
2022/01/29 01:01:19;;;;;;;21.50;2.83;;;5.60;80.10;;;;;;4989609;28;20128;-68
2022/01/29 01:03:45;;;;;;;15.57;3.15;;;5.70;79.90;;;;;;4988665;28;20092;-67
2022/01/29 01:06:11;;;;;;;20.77;3.38;;;5.70;80.10;;;;;;4997163;28;20029;-67
2022/01/29 01:08:36;;;;;;;14.80;3.15;;;5.70;79.80;;;;;;5002896;28;20018;-67
2022/01/29 01:11:04;;;;;;;10.20;2.33;;;5.70;79.60;;;;;;5001078;28;20045;-67
2022/01/29 01:13:31;;;;;;;16.90;2.45;;;5.80;79.40;;;;;;5003494;28;20030;-67
2022/01/29 01:15:57;;;;;;;16.80;2.80;;;5.80;79.70;;;;;;5003104;28;20034;-70
2022/01/29 01:18:23;;;;;;;15.23;2.30;;;5.80;78.70;;;;;;5002296;28;20033;-69
2022/01/29 01:20:49;;;;;;;13.57;2.88;;;5.80;79.40;;;;;;5001625;28;20033;-67
2022/01/29 01:23:15;;;;;;;16.77;3.67;;;5.70;80.40;;;;;;5002681;28;20778;-67
2022/01/29 01:25:41;;;;;;;18.45;2.42;;;5.60;79.50;;;;;;4999028;28;20065;-67
2022/01/29 01:28:06;;;;;;;31.88;6.50;;;5.60;79.90;;;;;;5014218;28;20026;-67
2022/01/29 01:30:32;;;;;;;15.65;3.50;;;5.70;79.80;;;;;;4997105;28;20030;-67
2022/01/29 01:33:01;;;;;;;20.77;2.90;;;5.70;79.50;;;;;;4995106;28;20131;-67
2022/01/29 01:35:33;;;;;;;16.35;2.25;;;5.70;79.50;;;;;;4995828;28;20034;-67
2022/01/29 01:40:30;;;;;;;13.10;2.35;;;5.70;79.80;;;;;;4997829;28;20053;-66
2022/01/29 01:43:00;;;;;;;14.88;2.17;;;5.70;79.70;;;;;;5008174;28;20052;-67
2022/01/29 01:45:27;;;;;;;11.07;2.55;;;5.70;79.90;;;;;;5003543;28;20183;-66
2022/01/29 01:47:54;;;;;;;11.35;2.03;;;5.60;79.60;;;;;;4999812;28;20030;-67
2022/01/29 01:50:21;;;;;;;14.57;2.70;;;5.50;80.00;;;;;;4996605;28;20037;-67
2022/01/29 01:52:48;;;;;;;12.60;2.65;;;5.50;80.50;;;;;;5003446;28;20142;-67
2022/01/29 01:55:14;;;;;;;15.98;2.70;;;5.50;80.90;;;;;;5005368;28;20040;-67
2022/01/29 01:57:40;;;;;;;12.77;2.80;;;5.50;81.10;;;;;;5004296;28;20041;-67
2022/01/29 02:00:07;;;;;;;14.35;2.63;;;5.60;80.80;;;;;;5004826;28;20041;-64
2022/01/29 02:02:37;;;;;;;13.68;2.20;;;5.60;80.90;;;;;;5004344;28;20149;-67
2022/01/29 02:05:03;;;;;;;16.15;3.42;;;5.60;81.90;;;;;;5005560;28;20446;-67
2022/01/29 02:07:30;;;;;;;24.75;2.70;;;5.50;82.30;;;;;;5004184;28;20030;-64
2022/01/29 02:09:56;;;;;;;20.27;3.97;;;5.40;82.80;;;;;;5001095;28;20022;-67
2022/01/29 02:12:25;;;;;;;16.13;2.60;;;5.40;83.50;;;;;;5013857;28;20045;-67
2022/01/29 02:14:52;;;;;;;17.30;2.55;;;5.30;83.70;;;;;;5021248;28;20037;-67
2022/01/29 02:17:17;;;;;;;17.30;3.08;;;5.30;84.40;;;;;;5006717;28;20132;-67
2022/01/29 02:19:43;;;;;;;8.52;2.25;;;5.30;84.90;;;;;;5005577;28;20133;-67
2022/01/29 02:22:09;;;;;;;20.35;3.22;;;5.40;84.90;;;;;;5005353;28;20037;-67
2022/01/29 02:24:36;;;;;;;15.68;2.50;;;5.40;84.90;;;;;;5005919;28;20022;-66
2022/01/29 02:27:02;;;;;;;21.17;2.60;;;5.30;85.10;;;;;;5006806;28;20080;-66
2022/01/29 02:29:28;;;;;;;11.00;2.28;;;5.30;85.70;;;;;;5005540;28;20415;-67
2022/01/29 02:31:57;;;;;;;18.83;2.45;;;5.20;85.80;;;;;;5006532;28;20046;-67
2022/01/29 02:34:24;;;;;;;20.08;2.75;;;5.20;86.20;;;;;;4997729;28;20030;-67
2022/01/29 02:36:52;;;;;;;11.55;2.30;;;5.10;86.90;;;;;;4995487;28;20049;-72
2022/01/29 02:39:18;;;;;;;17.48;2.72;;;5.00;87.50;;;;;;4994029;28;20044;-67
2022/01/29 02:41:45;;;;;;;14.80;2.97;;;5.00;88.60;;;;;;4998737;28;20033;-66
2022/01/29 02:44:15;;;;;;;12.40;2.95;;;5.00;88.70;;;;;;4999918;28;20038;-67
2022/01/29 02:49:14;;;;;;;12.48;2.75;;;5.00;88.30;;;;;;4998313;28;20484;-66
2022/01/29 02:51:53;;;;;;;10.95;2.53;;;5.00;88.60;;;;;;4996129;28;20042;-71
2022/01/29 02:54:20;;;;;;;15.20;3.25;;;4.90;88.80;;;;;;4996694;28;20041;-71
2022/01/29 02:56:46;;;;;;;17.63;2.92;;;5.00;89.30;;;;;;4996535;28;20053;-71
2022/01/29 02:59:11;;;;;;;15.80;3.13;;;5.00;88.80;;;;;;4998695;28;20030;-71
2022/01/29 03:01:38;;;;;;;18.73;3.25;;;5.00;88.90;;;;;;4995503;28;20088;-71
2022/01/29 03:04:04;;;;;;;21.73;3.63;;;5.10;88.90;;;;;;4998747;28;20034;-72
2022/01/29 03:06:30;;;;;;;20.00;3.67;;;5.10;89.20;;;;;;4998985;28;20046;-71
2022/01/29 03:08:56;;;;;;;13.43;3.95;;;5.00;89.30;;;;;;4998160;28;20504;-71
2022/01/29 03:11:22;;;;;;;22.75;3.83;;;5.00;89.60;;;;;;4999504;28;20044;-71
2022/01/29 03:13:49;;;;;;;19.98;3.30;;;5.00;89.80;;;;;;4996437;28;20109;-70
2022/01/29 03:16:15;;;;;;;12.98;4.38;;;4.90;90.20;;;;;;4999828;28;20048;-72
2022/01/29 03:18:41;;;;;;;14.27;3.65;;;4.90;90.50;;;;;;4997340;28;20565;-71
2022/01/29 03:21:07;;;;;;;19.38;4.82;;;4.90;90.40;;;;;;4999168;28;20040;-72
2022/01/29 03:23:32;;;;;;;16.83;4.35;;;5.00;90.60;;;;;;5013495;28;20099;-72
2022/01/29 03:25:58;;;;;;;17.92;3.47;;;4.90;90.70;;;;;;4999043;28;20097;-72
2022/01/29 03:28:24;;;;;;;19.55;3.83;;;4.90;91.00;;;;;;4999637;28;20041;-71
2022/01/29 03:30:49;;;;;;;22.05;4.45;;;4.90;91.60;;;;;;4994684;28;20049;-71
2022/01/29 03:33:15;;;;;;;16.13;4.25;;;4.90;91.30;;;;;;4997842;28;20038;-72
2022/01/29 03:35:41;;;;;;;24.05;4.80;;;4.90;91.40;;;;;;5012755;28;20042;-72
2022/01/29 03:38:06;;;;;;;23.38;6.13;;;5.00;91.30;;;;;;5015406;28;20038;-71
2022/01/29 03:40:33;;;;;;;20.15;4.47;;;5.00;91.60;;;;;;4998557;28;20044;-72
2022/01/29 03:43:06;;;;;;;16.73;4.85;;;4.90;91.60;;;;;;5000480;28;20041;-72
2022/01/29 03:45:32;;;;;;;26.00;5.85;;;4.80;92.10;;;;;;4998645;28;20049;-73
2022/01/29 03:47:59;;;;;;;22.50;5.57;;;4.80;92.20;;;;;;4999754;28;20033;-70
2022/01/29 03:50:24;;;;;;;16.08;4.85;;;5.00;92.10;;;;;;5000363;28;20140;-72
2022/01/29 03:52:50;;;;;;;19.80;5.55;;;4.90;92.00;;;;;;4981021;28;20133;-72
2022/01/29 03:55:16;;;;;;;15.88;5.22;;;4.90;92.10;;;;;;4998402;28;20437;-72
2022/01/29 03:57:42;;;;;;;18.15;5.53;;;4.90;92.20;;;;;;4992562;28;20109;-72
2022/01/29 04:00:08;;;;;;;16.95;5.03;;;4.80;92.70;;;;;;5011640;28;20074;-72
2022/01/29 04:02:34;;;;;;;14.38;4.43;;;4.70;92.80;;;;;;4999090;28;20034;-72
2022/01/29 04:04:59;;;;;;;19.75;5.47;;;4.70;93.00;;;;;;5001163;28;20038;-72
2022/01/29 04:07:25;;;;;;;21.63;5.50;;;4.80;92.80;;;;;;5016037;28;20026;-73
2022/01/29 04:09:52;;;;;;;16.10;5.35;;;4.80;92.50;;;;;;4996495;28;20030;-72
2022/01/29 04:12:18;;;;;;;22.33;6.30;;;4.80;92.70;;;;;;5001672;28;20132;-72
2022/01/29 04:14:44;;;;;;;21.02;5.43;;;4.80;92.60;;;;;;5000073;28;20117;-73
2022/01/29 04:17:11;;;;;;;11.52;5.32;;;4.90;92.40;;;;;;5002602;28;20393;-72
2022/01/29 04:19:38;;;;;;;18.17;5.15;;;5.00;92.20;;;;;;5011668;28;20048;-72
2022/01/29 04:22:05;;;;;;;19.80;5.80;;;4.90;92.20;;;;;;4994527;28;20478;-72
2022/01/29 04:24:31;;;;;;;19.08;5.65;;;4.90;92.30;;;;;;5016015;28;20061;-73
2022/01/29 04:26:58;;;;;;;14.68;5.20;;;4.80;92.30;;;;;;4998274;28;20438;-72
2022/01/29 04:29:24;;;;;;;26.75;5.72;;;4.70;92.70;;;;;;5002331;28;20068;-72
2022/01/29 04:34:18;;;;;;;25.95;5.55;;;4.80;92.60;;;;;;4995658;28;20088;-73
2022/01/29 04:36:44;;;;;;;19.67;5.47;;;4.80;92.60;;;;;;4993828;28;20030;-72
2022/01/29 04:39:10;;;;;;;20.42;5.32;;;4.80;92.80;;;;;;5000619;28;20397;-72
2022/01/29 04:41:36;;;;;;;25.33;5.80;;;4.80;92.80;;;;;;5001404;28;20493;-72
2022/01/29 04:44:01;;;;;;;22.05;4.70;;;4.90;92.70;;;;;;4999742;28;20033;-73
2022/01/29 04:46:28;;;;;;;15.77;5.55;;;4.80;92.70;;;;;;5002047;28;20037;-72
2022/01/29 04:48:53;;;;;;;20.88;6.15;;;4.80;92.80;;;;;;4997425;28;20044;-72
2022/01/29 04:51:20;;;;;;;18.60;5.70;;;4.90;93.00;;;;;;5016757;28;20037;-72
2022/01/29 04:53:45;;;;;;;17.92;5.78;;;4.90;92.80;;;;;;5016774;28;20053;-72
2022/01/29 04:56:11;;;;;;;16.77;5.75;;;4.90;93.00;;;;;;5017564;28;20037;-72
2022/01/29 04:58:37;;;;;;;16.23;5.20;;;5.00;93.00;;;;;;5002295;28;20045;-72
2022/01/29 05:01:04;;;;;;;17.13;5.05;;;5.00;92.70;;;;;;5002929;28;20048;-72
2022/01/29 05:03:30;;;;;;;24.40;6.50;;;5.00;92.70;;;;;;5017798;28;20559;-72
2022/01/29 05:05:56;;;;;;;16.55;5.65;;;5.00;92.60;;;;;;5017769;28;20034;-73
2022/01/29 05:08:22;;;;;;;18.23;5.40;;;5.00;92.90;;;;;;5019081;28;20037;-72
2022/01/29 05:10:48;;;;;;;21.73;5.90;;;5.00;92.90;;;;;;5012953;28;20061;-72
2022/01/29 05:13:19;;;;;;;21.98;5.35;;;5.10;92.90;;;;;;5018702;28;20065;-72
2022/01/29 05:29:38;;;;;;;31.45;6.03;;;5.00;93.10;;;;;;4986202;28;20042;-72
2022/01/29 05:32:07;;;;;;;13.07;5.50;;;5.00;93.20;;;;;;4994676;28;20036;-72
2022/01/29 05:34:33;;;;;;;16.15;5.93;;;5.00;93.50;;;;;;5005727;28;20069;-72
2022/01/29 05:37:00;;;;;;;16.90;6.07;;;5.00;93.60;;;;;;4995209;28;20042;-72
2022/01/29 05:39:26;;;;;;;17.63;6.20;;;5.00;93.50;;;;;;5010771;28;20061;-72
2022/01/29 05:41:53;;;;;;;16.05;6.38;;;5.00;93.60;;;;;;4995621;28;20061;-72
2022/01/29 05:44:19;;;;;;;13.38;5.90;;;5.00;93.70;;;;;;5011670;28;20681;-72
2022/01/29 05:46:45;;;;;;;20.10;6.30;;;5.00;93.70;;;;;;5008985;28;20429;-72
2022/01/29 05:49:11;;;;;;;23.90;6.85;;;5.00;93.70;;;;;;4996634;28;20041;-72
2022/01/29 05:51:37;;;;;;;17.10;7.65;;;5.00;93.70;;;;;;5009822;28;20064;-71
2022/01/29 05:54:02;;;;;;;19.15;7.57;;;5.00;94.00;;;;;;4995946;28;20080;-71
2022/01/29 05:56:29;;;;;;;20.05;6.78;;;4.90;94.10;;;;;;4995281;28;20034;-72
2022/01/29 05:58:56;;;;;;;20.33;7.18;;;4.90;94.20;;;;;;4995211;28;20034;-72
2022/01/29 06:01:21;;;;;;;18.73;7.97;;;5.00;94.20;;;;;;4996682;28;20042;-72
2022/01/29 06:03:47;;;;;;;14.77;6.63;;;5.00;94.10;;;;;;4994426;28;20022;-72
2022/01/29 06:06:13;;;;;;;18.88;6.68;;;5.00;94.00;;;;;;5012180;28;20583;-72
2022/01/29 06:08:39;;;;;;;18.17;6.88;;;5.10;94.10;;;;;;4991557;28;20026;-72
2022/01/29 06:11:05;;;;;;;21.52;6.78;;;5.20;93.90;;;;;;4994372;28;20034;-72
2022/01/29 06:13:30;;;;;;;20.38;6.32;;;5.10;94.10;;;;;;4995379;28;20081;-72
2022/01/29 06:15:56;;;;;;;20.90;7.15;;;5.10;94.20;;;;;;4995292;28;20022;-72
2022/01/29 06:18:23;;;;;;;21.25;8.38;;;5.10;94.10;;;;;;4997691;28;20531;-72
2022/01/29 06:20:55;;;;;;;17.55;6.97;;;5.00;94.40;;;;;;4995176;28;20042;-72
2022/01/29 06:23:28;;;;;;;17.48;7.90;;;4.90;94.70;;;;;;5015169;28;20037;-72
2022/01/29 06:25:55;;;;;;;17.73;6.85;;;5.00;94.90;;;;;;5000484;28;20026;-72
2022/01/29 06:28:20;;;;;;;18.80;7.15;;;5.00;94.60;;;;;;5001514;28;20021;-72
2022/01/29 06:30:46;;;;;;;24.20;8.13;;;5.10;94.70;;;;;;4999287;28;20386;-71
2022/01/29 06:33:13;;;;;;;23.98;7.60;;;5.00;94.60;;;;;;4999677;28;20782;-72
2022/01/29 06:35:41;;;;;;;17.98;6.97;;;5.00;94.90;;;;;;5000029;28;20026;-71
2022/01/29 06:38:09;;;;;;;18.92;7.82;;;4.90;95.00;;;;;;5003224;28;20437;-71
2022/01/29 06:40:35;;;;;;;19.63;7.85;;;4.80;95.40;;;;;;5000792;28;20034;-71
2022/01/29 06:43:02;;;;;;;17.23;6.80;;;4.80;95.70;;;;;;5003719;28;20037;-71
2022/01/29 06:45:29;;;;;;;18.20;7.32;;;4.80;95.60;;;;;;5017264;28;20072;-71
2022/01/29 06:47:54;;;;;;;20.50;7.90;;;4.80;95.70;;;;;;5002521;28;20524;-71
2022/01/29 06:50:20;;;;;;;19.48;8.32;;;4.90;95.70;;;;;;5017353;28;20050;-71
2022/01/29 06:52:46;;;;;;;21.95;8.48;;;4.90;95.60;;;;;;5016331;28;20069;-71
2022/01/29 06:55:12;;;;;;;16.73;8.35;;;5.00;95.50;;;;;;5003825;28;20037;-71
2022/01/29 06:57:38;;;;;;;22.85;8.13;;;5.00;95.50;;;;;;5001430;28;20040;-72
2022/01/29 07:00:07;;;;;;;23.98;8.20;;;4.90;95.50;;;;;;5018825;28;20057;-71
2022/01/29 07:02:33;;;;;;;24.50;9.25;;;4.90;95.70;;;;;;5012621;28;20088;-72
2022/01/29 07:04:59;;;;;;;25.73;10.98;;;5.00;95.60;;;;;;4993167;28;20065;-72
2022/01/29 07:07:26;;;;;;;19.73;9.25;;;5.10;95.50;;;;;;5002900;28;20053;-72
2022/01/29 07:09:52;;;;;;;21.75;8.57;;;5.10;95.30;;;;;;5002944;28;20741;-72
2022/01/29 07:12:18;;;;;;;20.08;8.68;;;5.20;95.30;;;;;;4999057;28;20121;-72
2022/01/29 07:14:44;;;;;;;21.33;8.65;;;5.20;95.30;;;;;;5002896;28;20109;-72
2022/01/29 07:17:16;;;;;;;19.55;8.95;;;5.10;95.30;;;;;;5003936;28;20041;-71
2022/01/29 07:19:43;;;;;;;20.63;9.13;;;5.10;95.70;;;;;;5000306;28;20142;-71
2022/01/29 07:22:09;;;;;;;16.30;8.63;;;5.10;95.70;;;;;;4999899;28;20045;-71
2022/01/29 07:24:35;;;;;;;20.65;9.38;;;5.10;95.70;;;;;;5002411;28;20034;-72
2022/01/29 07:27:02;;;;;;;27.95;11.02;;;5.00;95.90;;;;;;5003509;28;20099;-72
2022/01/29 07:29:28;;;;;;;21.42;10.15;;;5.10;96.00;;;;;;5002788;28;20038;-72
2022/01/29 07:31:56;;;;;;;20.88;9.13;;;5.20;95.80;;;;;;5018675;28;20037;-72
2022/01/29 07:34:23;;;;;;;19.20;9.27;;;5.20;95.60;;;;;;5017659;28;20049;-72
2022/01/29 07:36:50;;;;;;;29.52;11.93;;;5.10;96.00;;;;;;5004060;28;20034;-72
2022/01/29 07:39:16;;;;;;;21.20;9.90;;;5.10;96.30;;;;;;5019437;28;20049;-72
2022/01/29 07:41:42;;;;;;;17.40;10.05;;;5.10;96.30;;;;;;5018401;28;20034;-71
2022/01/29 07:44:07;;;;;;;23.33;9.15;;;5.10;96.20;;;;;;5005433;28;20025;-72
2022/01/29 07:46:33;;;;;;;18.35;9.27;;;5.00;96.50;;;;;;4995320;28;20041;-71
2022/01/29 07:48:59;;;;;;;23.10;11.60;;;5.00;96.80;;;;;;5015941;28;20034;-71
2022/01/29 07:51:25;;;;;;;26.13;12.50;;;5.00;96.70;;;;;;5011423;28;20025;-72
2022/01/29 07:53:51;;;;;;;21.08;10.38;;;5.20;96.30;;;;;;5005573;28;20033;-72
2022/01/29 07:56:20;;;;;;;15.57;9.07;;;5.30;96.20;;;;;;5001078;28;20124;-71
2022/01/29 07:58:46;;;;;;;18.98;9.10;;;5.40;95.90;;;;;;5005321;28;20034;-72
2022/01/29 08:01:13;;;;;;;15.27;8.18;;;5.50;95.80;;;;;;5004962;28;20228;-72
2022/01/29 08:03:39;;;;;;;20.83;9.45;;;5.50;95.80;;;;;;4994350;28;20488;-72
2022/01/29 08:06:05;;;;;;;16.88;8.43;;;5.50;95.70;;;;;;4996121;28;20504;-71
2022/01/29 08:08:30;;;;;;;17.38;8.88;;;5.60;95.70;;;;;;4996197;28;20112;-72
2022/01/29 08:10:56;;;;;;;16.33;8.40;;;5.60;95.60;;;;;;4994501;28;20030;-72
2022/01/29 08:13:22;;;;;;;17.27;8.45;;;5.60;95.60;;;;;;4997312;28;20033;-72
2022/01/29 08:15:47;;;;;;;16.70;8.43;;;5.70;95.90;;;;;;5004219;28;20482;-72
2022/01/29 08:18:13;;;;;;;14.70;7.75;;;5.80;95.70;;;;;;4997279;28;20038;-72
2022/01/29 08:20:39;;;;;;;14.88;7.95;;;5.80;95.50;;;;;;4995005;28;20030;-72
2022/01/29 08:23:09;;;;;;;18.52;7.93;;;5.90;95.50;;;;;;5012211;28;20036;-71
2022/01/29 08:25:36;;;;;;;14.40;8.57;;;5.90;95.30;;;;;;4996003;28;20038;-72
2022/01/29 08:28:01;;;;;;;14.27;8.05;;;5.90;95.60;;;;;;4993861;28;20054;-72
2022/01/29 08:30:27;;;;;;;14.80;8.70;;;5.90;95.60;;;;;;5010244;28;20029;-72
2022/01/29 08:32:53;;;;;;;15.60;8.60;;;6.00;95.60;;;;;;4995320;28;20026;-71
2022/01/29 08:35:18;;;;;;;16.65;8.98;;;6.00;95.70;;;;;;4998332;28;20045;-72
2022/01/29 08:37:45;;;;;;;20.67;9.95;;;6.10;95.50;;;;;;4996089;28;20030;-72
2022/01/29 08:40:11;;;;;;;16.88;8.35;;;6.20;95.40;;;;;;4994326;28;20033;-72
2022/01/29 08:42:37;;;;;;;17.77;8.75;;;6.30;95.10;;;;;;4995254;28;20489;-72
2022/01/29 08:45:04;;;;;;;17.35;8.43;;;6.30;95.10;;;;;;4996969;28;20045;-72
2022/01/29 08:47:30;;;;;;;15.57;8.70;;;6.30;95.20;;;;;;5007292;28;20034;-72
2022/01/29 08:49:55;;;;;;;21.05;10.93;;;6.20;95.40;;;;;;4996664;28;20028;-72
2022/01/29 08:52:21;;;;;;;14.38;8.50;;;6.30;95.70;;;;;;4998635;28;20030;-71
2022/01/29 08:54:47;;;;;;;15.20;8.00;;;6.40;95.40;;;;;;5011250;28;20075;-71
2022/01/29 08:57:13;;;;;;;17.38;8.23;;;6.40;95.20;;;;;;5014136;28;20477;-71
2022/01/29 08:59:39;;;;;;;12.77;8.05;;;6.50;95.20;;;;;;4997528;28;20038;-71
2022/01/29 09:02:05;;;;;;;15.38;8.63;;;6.60;95.10;;;;;;4997885;28;20037;-71
2022/01/29 09:04:31;;;;;;;18.17;8.93;;;6.50;95.30;;;;;;4996761;28;20520;-72
2022/01/29 09:06:57;;;;;;;12.70;7.78;;;6.60;95.40;;;;;;4997921;28;20493;-72
2022/01/29 09:09:26;;;;;;;12.15;7.05;;;6.60;95.40;;;;;;4997875;28;20022;-72
2022/01/29 09:11:52;;;;;;;17.52;8.25;;;6.70;95.10;;;;;;4993999;28;20041;-72
2022/01/29 09:14:19;;;;;;;15.15;7.53;;;6.70;95.40;;;;;;5007809;28;20034;-71
2022/01/29 09:16:44;;;;;;;15.73;8.35;;;6.80;95.20;;;;;;5011468;28;20027;-68
2022/01/29 09:19:11;;;;;;;16.42;8.73;;;6.70;95.10;;;;;;4998718;28;20638;-72
2022/01/29 09:21:37;;;;;;;21.25;7.72;;;6.80;95.30;;;;;;4996790;28;20038;-70
2022/01/29 09:24:03;;;;;;;13.88;8.77;;;6.90;95.10;;;;;;4995075;28;20049;-73
2022/01/29 09:26:29;;;;;;;14.73;8.63;;;6.80;95.00;;;;;;4999052;28;20390;-73
2022/01/29 09:28:54;;;;;;;24.08;10.48;;;6.90;95.10;;;;;;4999999;28;20027;-73
2022/01/29 09:31:21;;;;;;;16.48;8.43;;;6.90;95.10;;;;;;4995027;28;20035;-73
2022/01/29 09:33:47;;;;;;;22.13;11.18;;;6.90;95.30;;;;;;5024255;28;20025;-72
2022/01/29 09:36:13;;;;;;;19.20;9.38;;;7.00;95.20;;;;;;5000308;28;20502;-72
2022/01/29 09:38:39;;;;;;;17.48;10.25;;;7.00;95.20;;;;;;4999052;28;20049;-72
2022/01/29 09:41:05;;;;;;;16.77;9.38;;;7.00;95.20;;;;;;5000260;28;20034;-73
2022/01/29 09:43:32;;;;;;;16.85;9.45;;;7.00;95.30;;;;;;4999543;28;20530;-73
2022/01/29 09:45:59;;;;;;;20.48;9.60;;;7.10;95.40;;;;;;5000618;28;20026;-73
2022/01/29 09:48:28;;;;;;;22.08;10.23;;;7.20;95.10;;;;;;4999906;28;20489;-72
2022/01/29 09:50:55;;;;;;;22.70;10.40;;;7.20;95.10;;;;;;4986729;28;20026;-72
2022/01/29 09:53:21;;;;;;;18.70;10.40;;;7.30;94.90;;;;;;5002052;28;20030;-73
2022/01/29 09:55:47;;;;;;;19.13;9.40;;;7.30;95.00;;;;;;5000522;28;20605;-72
2022/01/29 09:58:14;;;;;;;18.27;9.68;;;7.40;95.00;;;;;;5003227;28;20041;-71
2022/01/29 10:00:39;;;;;;;18.80;9.45;;;7.40;95.30;;;;;;4998819;28;20126;-71
2022/01/29 10:03:17;;;;;;;19.25;9.95;;;7.50;95.00;;;;;;5012469;28;20030;-72
2022/01/29 10:05:45;;;;;;;20.52;10.75;;;7.50;94.80;;;;;;4994390;28;20034;-74
2022/01/29 10:08:11;;;;;;;19.63;9.82;;;7.50;94.90;;;;;;5000439;28;20095;-72
2022/01/29 10:11:04;;;;;;;18.33;10.20;;;7.60;95.00;;;;;;5003333;28;20030;-73
2022/01/29 10:13:38;;;;;;;19.98;9.55;;;7.60;95.00;;;;;;4996974;28;20065;-73
2022/01/29 10:16:08;;;;;;;20.27;11.60;;;7.60;95.00;;;;;;5001260;28;20087;-73
2022/01/29 10:18:35;;;;;;;16.77;9.98;;;7.70;95.10;;;;;;5003788;28;20042;-72
2022/01/29 10:21:20;;;;;;;21.17;10.85;;;7.70;95.10;;;;;;5001538;28;20061;-73
2022/01/29 10:23:46;;;;;;;17.30;9.30;;;7.80;95.20;;;;;;5013651;28;20057;-73
2022/01/29 10:26:33;;;;;;;17.95;10.30;;;7.70;95.00;;;;;;4997869;28;20026;-73
2022/01/29 10:29:00;;;;;;;18.10;11.20;;;7.80;95.20;;;;;;5018397;28;20029;-72
2022/01/29 10:31:41;;;;;;;20.52;9.45;;;7.90;95.10;;;;;;5000445;28;20784;-72
2022/01/29 10:34:31;;;;;;;15.98;9.00;;;7.90;95.00;;;;;;4987232;28;20064;-72
2022/01/29 10:37:12;;;;;;;16.23;9.70;;;8.00;95.00;;;;;;5014334;28;20558;-70
2022/01/29 10:39:38;;;;;;;17.67;9.25;;;8.00;94.90;;;;;;4998480;28;20121;-72
2022/01/29 10:42:14;;;;;;;18.63;9.18;;;8.10;94.80;;;;;;4998820;28;20042;-73
2022/01/29 10:44:45;;;;;;;15.40;9.20;;;8.20;94.60;;;;;;5009406;28;20041;-73
2022/01/29 10:47:11;;;;;;;15.27;8.40;;;8.30;94.70;;;;;;5002964;28;20171;-74
2022/01/29 10:49:44;;;;;;;15.07;7.93;;;8.40;94.50;;;;;;4999128;28;20465;-72
2022/01/29 10:52:12;;;;;;;13.48;8.27;;;8.40;94.40;;;;;;4999888;28;20045;-75
2022/01/29 10:54:43;;;;;;;13.38;8.38;;;8.40;94.40;;;;;;5002309;28;20038;-71
2022/01/29 10:57:10;;;;;;;15.25;8.38;;;8.30;94.50;;;;;;4999767;28;20042;-72
2022/01/29 10:59:48;;;;;;;12.00;8.05;;;8.30;94.70;;;;;;5002597;28;20145;-71
2022/01/29 11:02:16;;;;;;;13.25;7.78;;;8.40;94.50;;;;;;5001376;28;20049;-73
2022/01/29 11:04:43;;;;;;;16.13;9.00;;;8.40;94.70;;;;;;4995537;28;20402;-73
2022/01/29 11:07:16;;;;;;;12.27;7.13;;;8.50;94.50;;;;;;4999388;28;20045;-74
2022/01/29 11:09:43;;;;;;;10.63;6.93;;;8.60;94.30;;;;;;4995913;28;20080;-74
2022/01/29 11:12:11;;;;;;;9.05;6.60;;;8.70;94.20;;;;;;4996950;28;20038;-74
2022/01/29 11:14:38;;;;;;;11.25;6.18;;;8.70;93.70;;;;;;4996579;28;20037;-73
2022/01/29 11:17:04;;;;;;;10.27;6.45;;;8.60;93.60;;;;;;5002006;28;20033;-73
2022/01/29 11:19:34;;;;;;;9.75;6.20;;;8.60;93.80;;;;;;5018154;28;20137;-74
2022/01/29 11:22:04;;;;;;;10.00;6.53;;;8.70;94.00;;;;;;4985645;28;20037;-72
2022/01/29 11:24:31;;;;;;;9.93;6.45;;;8.70;93.80;;;;;;5010549;28;20053;-72
2022/01/29 11:26:56;;;;;;;12.32;6.40;;;8.80;93.70;;;;;;4996901;28;20557;-73
2022/01/29 11:29:26;;;;;;;10.48;6.18;;;8.90;93.50;;;;;;4997572;28;20034;-73
2022/01/29 11:32:20;;;;;;;7.88;5.88;;;8.90;93.60;;;;;;4979160;28;20044;-73
2022/01/29 11:35:05;;;;;;;11.35;6.50;;;8.90;93.30;;;;;;4997589;28;20026;-73
2022/01/29 11:37:41;;;;;;;8.98;6.00;;;8.90;93.40;;;;;;4996641;28;20030;-72
2022/01/29 11:40:14;;;;;;;8.00;5.57;;;9.00;93.30;;;;;;4998731;28;20030;-73
2022/01/29 11:42:58;;;;;;;12.77;6.22;;;9.00;93.00;;;;;;5013648;28;20034;-72
2022/01/29 11:45:39;;;;;;;8.98;5.57;;;9.10;93.10;;;;;;4988862;28;20518;-73
2022/01/29 11:48:30;;;;;;;8.00;5.25;;;9.00;93.10;;;;;;4992198;28;20043;-79
2022/01/29 11:50:57;;;;;;;10.70;5.30;;;9.10;93.20;;;;;;4989008;28;20161;-74
2022/01/29 11:53:24;;;;;;;8.07;5.28;;;9.20;93.10;;;;;;4999354;28;20507;-74
2022/01/29 11:55:55;;;;;;;7.38;5.53;;;9.10;92.70;;;;;;4981974;28;20069;-74
2022/01/29 11:58:28;;;;;;;9.70;5.53;;;9.20;93.00;;;;;;4996907;28;20393;-74
2022/01/29 12:01:02;;;;;;;8.73;6.03;;;9.20;92.80;;;;;;4997565;28;20030;-74
2022/01/29 12:08:41;;;;;;;11.85;7.13;;;9.30;92.80;;;;;;4998383;28;20034;-74
2022/01/29 12:11:11;;;;;;;13.35;8.30;;;9.20;92.80;;;;;;4999686;28;20117;-74
2022/01/29 12:13:37;;;;;;;12.98;7.70;;;9.30;92.90;;;;;;4992319;28;20033;-72
2022/01/29 12:16:05;;;;;;;8.63;5.88;;;9.30;92.90;;;;;;4997620;28;20040;-72
2022/01/29 12:18:35;;;;;;;14.73;8.52;;;9.30;92.80;;;;;;4995640;28;20088;-70
2022/01/29 12:21:03;;;;;;;16.92;9.10;;;9.30;92.80;;;;;;4996890;28;20040;-71
2022/01/29 12:23:28;;;;;;;12.20;7.35;;;9.40;92.90;;;;;;4998146;28;20810;-72
2022/01/29 12:25:57;;;;;;;15.77;8.02;;;9.40;92.80;;;;;;4995741;28;20057;-72
2022/01/29 12:28:23;;;;;;;11.43;6.05;;;9.40;92.80;;;;;;4995895;28;20065;-70
2022/01/29 12:30:49;;;;;;;8.43;5.45;;;9.50;92.80;;;;;;4996233;28;20411;-70
2022/01/29 12:33:20;;;;;;;9.90;5.45;;;9.50;92.30;;;;;;4994218;28;20052;-70
2022/01/29 12:35:59;;;;;;;9.30;5.07;;;9.50;92.40;;;;;;4995320;28;20030;-71
2022/01/29 12:38:29;;;;;;;7.93;4.72;;;9.60;92.40;;;;;;4993371;28;20049;-71
2022/01/29 12:41:04;;;;;;;11.02;5.28;;;9.60;92.30;;;;;;4992410;28;20648;-72
2022/01/29 12:43:38;;;;;;;8.60;4.88;;;9.60;92.30;;;;;;5003017;28;20045;-72
2022/01/29 12:46:17;;;;;;;7.05;4.60;;;9.70;92.40;;;;;;4997387;28;20064;-72
2022/01/29 12:49:04;;;;;;;6.88;4.07;;;9.70;92.10;;;;;;4996952;28;20121;-72
2022/01/29 12:51:29;;;;;;;;;;;9.80;92.00;;;;;;5013468;28;20087;-70
2022/01/29 12:54:01;;;;;;;5.00;3.50;;;9.70;91.80;;;;;;4999445;28;19917;-71
2022/01/29 12:56:35;;;;;;;6.32;3.75;;;9.70;92.10;;;;;;4996891;28;20583;-72
2022/01/29 12:59:03;;;;;;;7.80;3.42;;;9.80;92.00;;;;;;4999040;28;20030;-72
2022/01/29 13:01:29;;;;;;;6.75;3.47;;;9.90;91.80;;;;;;4998083;28;20041;-72
2022/01/29 13:04:21;;;;;;;5.20;3.10;;;9.90;91.80;;;;;;4995418;28;20030;-72
2022/01/29 13:06:58;;;;;;;6.32;3.20;;;10.00;91.60;;;;;;4997559;28;20563;-72
2022/01/29 13:09:24;;;;;;;4.35;2.92;;;10.10;91.60;;;;;;5006732;28;20478;-73
2022/01/29 13:12:04;;;;;;;3.83;2.58;;;10.20;91.20;;;;;;4996963;28;20462;-72
2022/01/29 13:14:32;;;;;;;3.70;3.00;;;10.30;91.00;;;;;;4995642;28;20038;-73
2022/01/29 13:17:06;;;;;;;4.28;2.63;;;10.30;91.30;;;;;;4997014;28;20033;-73